sensor_id;sensor_type;location;lat;lon;timestamp;P1;durP1;ratioP1;P2;durP2;ratioP2
63050;SDS011;49136;47.416;19.402;2022-09-23T00:02:20;16.85;;;6.75;;
63050;SDS011;49136;47.416;19.402;2022-09-23T00:04:46;27.50;;;8.88;;
63050;SDS011;49136;47.416;19.402;2022-09-23T00:07:11;22.55;;;8.15;;
63050;SDS011;49136;47.416;19.402;2022-09-23T00:09:36;17.25;;;7.93;;
63050;SDS011;49136;47.416;19.402;2022-09-23T00:12:02;16.77;;;7.38;;
63050;SDS011;49136;47.416;19.402;2022-09-23T00:14:27;20.77;;;7.95;;
63050;SDS011;49136;47.416;19.402;2022-09-23T00:16:53;18.00;;;8.25;;
63050;SDS011;49136;47.416;19.402;2022-09-23T00:19:18;14.70;;;7.53;;
63050;SDS011;49136;47.416;19.402;2022-09-23T00:21:44;18.15;;;8.68;;
63050;SDS011;49136;47.416;19.402;2022-09-23T00:24:09;16.40;;;8.07;;
63050;SDS011;49136;47.416;19.402;2022-09-23T00:26:34;16.00;;;7.80;;
63050;SDS011;49136;47.416;19.402;2022-09-23T00:29:00;18.05;;;7.95;;
63050;SDS011;49136;47.416;19.402;2022-09-23T00:31:25;20.10;;;9.00;;
63050;SDS011;49136;47.416;19.402;2022-09-23T00:33:54;21.63;;;8.75;;
63050;SDS011;49136;47.416;19.402;2022-09-23T00:36:22;18.20;;;7.15;;
63050;SDS011;49136;47.416;19.402;2022-09-23T00:38:48;18.10;;;7.82;;
63050;SDS011;49136;47.416;19.402;2022-09-23T00:41:13;15.95;;;6.32;;
63050;SDS011;49136;47.416;19.402;2022-09-23T00:46:09;15.82;;;7.13;;
63050;SDS011;49136;47.416;19.402;2022-09-23T00:48:38;17.83;;;7.63;;
63050;SDS011;49136;47.416;19.402;2022-09-23T00:51:05;19.60;;;8.50;;
63050;SDS011;49136;47.416;19.402;2022-09-23T00:53:33;14.43;;;7.75;;
63050;SDS011;49136;47.416;19.402;2022-09-23T00:56:01;15.63;;;8.13;;
63050;SDS011;49136;47.416;19.402;2022-09-23T00:58:29;20.92;;;8.88;;
63050;SDS011;49136;47.416;19.402;2022-09-23T01:00:58;19.92;;;8.02;;
63050;SDS011;49136;47.416;19.402;2022-09-23T01:03:24;19.17;;;7.30;;
63050;SDS011;49136;47.416;19.402;2022-09-23T01:05:50;17.45;;;7.05;;
63050;SDS011;49136;47.416;19.402;2022-09-23T01:08:16;17.58;;;7.57;;
63050;SDS011;49136;47.416;19.402;2022-09-23T01:13:54;19.67;;;7.47;;
63050;SDS011;49136;47.416;19.402;2022-09-23T01:19:33;30.42;;;6.68;;
63050;SDS011;49136;47.416;19.402;2022-09-23T01:22:17;10.68;;;5.60;;
63050;SDS011;49136;47.416;19.402;2022-09-23T01:24:50;20.03;;;7.40;;
63050;SDS011;49136;47.416;19.402;2022-09-23T01:27:54;14.40;;;6.18;;
63050;SDS011;49136;47.416;19.402;2022-09-23T01:33:08;13.75;;;6.15;;
63050;SDS011;49136;47.416;19.402;2022-09-23T01:44:01;15.63;;;6.10;;
63050;SDS011;49136;47.416;19.402;2022-09-23T01:46:37;14.70;;;5.93;;
63050;SDS011;49136;47.416;19.402;2022-09-23T01:49:19;12.98;;;5.70;;
63050;SDS011;49136;47.416;19.402;2022-09-23T01:52:08;18.98;;;6.50;;
63050;SDS011;49136;47.416;19.402;2022-09-23T01:57:47;14.63;;;5.93;;
63050;SDS011;49136;47.416;19.402;2022-09-23T02:00:19;18.73;;;5.95;;
63050;SDS011;49136;47.416;19.402;2022-09-23T02:02:51;14.13;;;7.07;;
63050;SDS011;49136;47.416;19.402;2022-09-23T02:05:26;15.40;;;6.82;;
63050;SDS011;49136;47.416;19.402;2022-09-23T02:08:15;17.35;;;5.93;;
63050;SDS011;49136;47.416;19.402;2022-09-23T02:10:52;12.73;;;5.90;;
63050;SDS011;49136;47.416;19.402;2022-09-23T02:13:52;17.35;;;7.13;;
63050;SDS011;49136;47.416;19.402;2022-09-23T02:16:30;15.40;;;6.28;;
63050;SDS011;49136;47.416;19.402;2022-09-23T02:21:26;15.25;;;7.10;;
63050;SDS011;49136;47.416;19.402;2022-09-23T02:24:19;23.38;;;7.00;;
63050;SDS011;49136;47.416;19.402;2022-09-23T02:26:54;20.45;;;7.20;;
63050;SDS011;49136;47.416;19.402;2022-09-23T02:35:26;23.10;;;7.10;;
63050;SDS011;49136;47.416;19.402;2022-09-23T02:40:57;17.38;;;6.25;;
63050;SDS011;49136;47.416;19.402;2022-09-23T02:43:45;15.13;;;6.50;;
63050;SDS011;49136;47.416;19.402;2022-09-23T02:46:18;15.30;;;6.82;;
63050;SDS011;49136;47.416;19.402;2022-09-23T02:48:45;18.60;;;7.18;;
63050;SDS011;49136;47.416;19.402;2022-09-23T02:51:18;18.95;;;7.43;;
63050;SDS011;49136;47.416;19.402;2022-09-23T02:53:44;17.95;;;6.90;;
63050;SDS011;49136;47.416;19.402;2022-09-23T02:56:14;20.73;;;7.32;;
63050;SDS011;49136;47.416;19.402;2022-09-23T02:58:41;16.45;;;6.97;;
63050;SDS011;49136;47.416;19.402;2022-09-23T03:01:14;19.30;;;6.93;;
63050;SDS011;49136;47.416;19.402;2022-09-23T03:09:33;12.95;;;5.70;;
63050;SDS011;49136;47.416;19.402;2022-09-23T03:14:53;22.75;;;6.57;;
63050;SDS011;49136;47.416;19.402;2022-09-23T03:17:31;20.83;;;6.13;;
63050;SDS011;49136;47.416;19.402;2022-09-23T03:22:32;21.15;;;6.57;;
63050;SDS011;49136;47.416;19.402;2022-09-23T03:25:07;17.17;;;7.30;;
63050;SDS011;49136;47.416;19.402;2022-09-23T03:27:36;20.50;;;7.18;;
63050;SDS011;49136;47.416;19.402;2022-09-23T03:30:03;14.30;;;5.80;;
63050;SDS011;49136;47.416;19.402;2022-09-23T03:32:29;18.23;;;7.38;;
63050;SDS011;49136;47.416;19.402;2022-09-23T03:34:56;17.50;;;7.00;;
63050;SDS011;49136;47.416;19.402;2022-09-23T03:40:00;23.70;;;6.30;;
63050;SDS011;49136;47.416;19.402;2022-09-23T03:42:32;14.07;;;5.90;;
63050;SDS011;49136;47.416;19.402;2022-09-23T03:45:00;16.08;;;6.20;;
63050;SDS011;49136;47.416;19.402;2022-09-23T03:47:31;16.27;;;7.30;;
63050;SDS011;49136;47.416;19.402;2022-09-23T03:49:56;17.33;;;6.68;;
63050;SDS011;49136;47.416;19.402;2022-09-23T03:52:22;15.70;;;7.05;;
63050;SDS011;49136;47.416;19.402;2022-09-23T03:54:49;16.17;;;7.50;;
63050;SDS011;49136;47.416;19.402;2022-09-23T03:57:16;15.73;;;7.03;;
63050;SDS011;49136;47.416;19.402;2022-09-23T03:59:41;15.80;;;6.80;;
63050;SDS011;49136;47.416;19.402;2022-09-23T04:02:07;23.50;;;9.02;;
63050;SDS011;49136;47.416;19.402;2022-09-23T04:04:34;18.40;;;8.60;;
63050;SDS011;49136;47.416;19.402;2022-09-23T04:07:01;14.13;;;7.40;;
63050;SDS011;49136;47.416;19.402;2022-09-23T04:09:27;20.05;;;8.40;;
63050;SDS011;49136;47.416;19.402;2022-09-23T04:11:53;23.35;;;7.53;;
63050;SDS011;49136;47.416;19.402;2022-09-23T04:14:19;14.25;;;7.63;;
63050;SDS011;49136;47.416;19.402;2022-09-23T04:16:45;20.25;;;7.65;;
63050;SDS011;49136;47.416;19.402;2022-09-23T04:19:12;23.40;;;8.00;;
63050;SDS011;49136;47.416;19.402;2022-09-23T04:21:38;20.92;;;6.88;;
63050;SDS011;49136;47.416;19.402;2022-09-23T04:24:05;21.35;;;7.78;;
63050;SDS011;49136;47.416;19.402;2022-09-23T04:26:31;20.60;;;6.88;;
63050;SDS011;49136;47.416;19.402;2022-09-23T04:28:58;19.20;;;7.63;;
63050;SDS011;49136;47.416;19.402;2022-09-23T04:31:24;18.02;;;7.40;;
63050;SDS011;49136;47.416;19.402;2022-09-23T04:33:49;15.73;;;7.68;;
63050;SDS011;49136;47.416;19.402;2022-09-23T04:36:17;15.77;;;6.90;;
63050;SDS011;49136;47.416;19.402;2022-09-23T04:38:43;23.08;;;8.05;;
63050;SDS011;49136;47.416;19.402;2022-09-23T04:41:09;18.05;;;7.47;;
63050;SDS011;49136;47.416;19.402;2022-09-23T04:43:34;21.65;;;7.72;;
63050;SDS011;49136;47.416;19.402;2022-09-23T04:46:01;18.73;;;8.35;;
63050;SDS011;49136;47.416;19.402;2022-09-23T04:48:28;21.33;;;9.02;;
63050;SDS011;49136;47.416;19.402;2022-09-23T04:50:53;23.23;;;8.68;;
63050;SDS011;49136;47.416;19.402;2022-09-23T04:53:19;25.10;;;9.80;;
63050;SDS011;49136;47.416;19.402;2022-09-23T04:55:46;17.40;;;8.27;;
63050;SDS011;49136;47.416;19.402;2022-09-23T04:58:11;17.25;;;7.97;;
63050;SDS011;49136;47.416;19.402;2022-09-23T05:00:36;20.13;;;7.97;;
63050;SDS011;49136;47.416;19.402;2022-09-23T05:03:02;18.83;;;7.30;;
63050;SDS011;49136;47.416;19.402;2022-09-23T05:05:28;21.85;;;8.00;;
63050;SDS011;49136;47.416;19.402;2022-09-23T05:07:54;17.70;;;7.40;;
63050;SDS011;49136;47.416;19.402;2022-09-23T05:10:20;20.42;;;8.13;;
63050;SDS011;49136;47.416;19.402;2022-09-23T05:12:46;16.75;;;7.68;;
63050;SDS011;49136;47.416;19.402;2022-09-23T05:15:11;26.10;;;8.98;;
63050;SDS011;49136;47.416;19.402;2022-09-23T05:17:40;19.50;;;8.95;;
63050;SDS011;49136;47.416;19.402;2022-09-23T05:20:08;26.63;;;9.07;;
63050;SDS011;49136;47.416;19.402;2022-09-23T05:22:35;24.17;;;10.35;;
63050;SDS011;49136;47.416;19.402;2022-09-23T05:25:00;19.90;;;9.25;;
63050;SDS011;49136;47.416;19.402;2022-09-23T05:27:26;23.00;;;9.20;;
63050;SDS011;49136;47.416;19.402;2022-09-23T05:29:52;24.92;;;10.13;;
63050;SDS011;49136;47.416;19.402;2022-09-23T05:32:17;26.65;;;9.60;;
63050;SDS011;49136;47.416;19.402;2022-09-23T05:34:43;24.88;;;10.82;;
63050;SDS011;49136;47.416;19.402;2022-09-23T05:37:08;24.05;;;9.88;;
63050;SDS011;49136;47.416;19.402;2022-09-23T05:39:34;21.90;;;9.15;;
63050;SDS011;49136;47.416;19.402;2022-09-23T05:41:59;22.42;;;9.75;;
63050;SDS011;49136;47.416;19.402;2022-09-23T05:44:25;28.60;;;10.40;;
63050;SDS011;49136;47.416;19.402;2022-09-23T05:46:50;29.73;;;9.50;;
63050;SDS011;49136;47.416;19.402;2022-09-23T05:49:16;27.08;;;9.80;;
63050;SDS011;49136;47.416;19.402;2022-09-23T05:51:41;24.75;;;10.23;;
63050;SDS011;49136;47.416;19.402;2022-09-23T05:54:07;26.17;;;10.10;;
63050;SDS011;49136;47.416;19.402;2022-09-23T05:56:33;24.73;;;10.27;;
63050;SDS011;49136;47.416;19.402;2022-09-23T05:58:59;22.17;;;9.45;;
63050;SDS011;49136;47.416;19.402;2022-09-23T06:01:27;32.90;;;10.20;;
63050;SDS011;49136;47.416;19.402;2022-09-23T06:03:58;31.50;;;11.02;;
63050;SDS011;49136;47.416;19.402;2022-09-23T06:08:57;27.92;;;10.20;;
63050;SDS011;49136;47.416;19.402;2022-09-23T06:11:23;22.38;;;9.32;;
63050;SDS011;49136;47.416;19.402;2022-09-23T06:13:52;22.67;;;9.70;;
63050;SDS011;49136;47.416;19.402;2022-09-23T06:16:18;23.33;;;9.55;;
63050;SDS011;49136;47.416;19.402;2022-09-23T06:18:44;20.77;;;10.15;;
63050;SDS011;49136;47.416;19.402;2022-09-23T06:21:13;20.45;;;8.55;;
63050;SDS011;49136;47.416;19.402;2022-09-23T06:23:40;18.10;;;8.18;;
63050;SDS011;49136;47.416;19.402;2022-09-23T06:26:07;22.30;;;7.57;;
63050;SDS011;49136;47.416;19.402;2022-09-23T06:28:34;15.15;;;7.55;;
63050;SDS011;49136;47.416;19.402;2022-09-23T06:31:02;15.98;;;6.93;;
63050;SDS011;49136;47.416;19.402;2022-09-23T06:33:29;16.05;;;7.68;;
63050;SDS011;49136;47.416;19.402;2022-09-23T06:35:58;24.52;;;9.88;;
63050;SDS011;49136;47.416;19.402;2022-09-23T06:38:26;16.88;;;8.02;;
63050;SDS011;49136;47.416;19.402;2022-09-23T06:40:52;17.13;;;7.72;;
63050;SDS011;49136;47.416;19.402;2022-09-23T06:43:20;16.38;;;7.97;;
63050;SDS011;49136;47.416;19.402;2022-09-23T06:45:50;17.00;;;7.60;;
63050;SDS011;49136;47.416;19.402;2022-09-23T06:48:16;14.27;;;7.82;;
63050;SDS011;49136;47.416;19.402;2022-09-23T06:50:42;14.60;;;7.32;;
63050;SDS011;49136;47.416;19.402;2022-09-23T06:53:08;16.77;;;7.60;;
63050;SDS011;49136;47.416;19.402;2022-09-23T06:55:33;14.85;;;6.60;;
63050;SDS011;49136;47.416;19.402;2022-09-23T06:57:59;16.40;;;7.00;;
63050;SDS011;49136;47.416;19.402;2022-09-23T07:00:24;15.07;;;6.90;;
63050;SDS011;49136;47.416;19.402;2022-09-23T07:02:50;12.02;;;6.40;;
63050;SDS011;49136;47.416;19.402;2022-09-23T07:05:16;13.20;;;6.47;;
63050;SDS011;49136;47.416;19.402;2022-09-23T07:07:42;13.52;;;6.78;;
63050;SDS011;49136;47.416;19.402;2022-09-23T07:10:08;12.65;;;5.90;;
63050;SDS011;49136;47.416;19.402;2022-09-23T07:12:35;13.60;;;6.35;;
63050;SDS011;49136;47.416;19.402;2022-09-23T07:15:00;13.60;;;7.05;;
63050;SDS011;49136;47.416;19.402;2022-09-23T07:17:26;12.18;;;6.68;;
63050;SDS011;49136;47.416;19.402;2022-09-23T07:19:51;16.00;;;6.68;;
63050;SDS011;49136;47.416;19.402;2022-09-23T07:22:18;13.75;;;6.68;;
63050;SDS011;49136;47.416;19.402;2022-09-23T07:24:48;14.23;;;6.82;;
63050;SDS011;49136;47.416;19.402;2022-09-23T07:27:14;15.40;;;6.88;;
63050;SDS011;49136;47.416;19.402;2022-09-23T07:29:43;16.30;;;7.63;;
63050;SDS011;49136;47.416;19.402;2022-09-23T07:32:09;14.77;;;6.05;;
63050;SDS011;49136;47.416;19.402;2022-09-23T07:34:35;12.45;;;6.45;;
63050;SDS011;49136;47.416;19.402;2022-09-23T07:37:01;12.23;;;6.28;;
63050;SDS011;49136;47.416;19.402;2022-09-23T07:39:27;12.65;;;5.35;;
63050;SDS011;49136;47.416;19.402;2022-09-23T07:41:53;11.15;;;4.88;;
63050;SDS011;49136;47.416;19.402;2022-09-23T07:44:19;12.88;;;6.03;;
63050;SDS011;49136;47.416;19.402;2022-09-23T07:46:46;10.63;;;5.18;;
63050;SDS011;49136;47.416;19.402;2022-09-23T07:49:12;10.20;;;4.70;;
63050;SDS011;49136;47.416;19.402;2022-09-23T07:51:38;9.88;;;4.47;;
63050;SDS011;49136;47.416;19.402;2022-09-23T07:54:05;10.25;;;5.15;;
63050;SDS011;49136;47.416;19.402;2022-09-23T07:56:34;10.82;;;4.15;;
63050;SDS011;49136;47.416;19.402;2022-09-23T07:59:00;10.60;;;4.70;;
63050;SDS011;49136;47.416;19.402;2022-09-23T08:01:37;9.15;;;4.68;;
63050;SDS011;49136;47.416;19.402;2022-09-23T08:04:13;9.60;;;3.83;;
63050;SDS011;49136;47.416;19.402;2022-09-23T08:06:42;10.60;;;4.78;;
63050;SDS011;49136;47.416;19.402;2022-09-23T08:09:10;10.30;;;4.70;;
63050;SDS011;49136;47.416;19.402;2022-09-23T08:11:36;10.63;;;4.70;;
63050;SDS011;49136;47.416;19.402;2022-09-23T08:14:05;11.82;;;5.00;;
63050;SDS011;49136;47.416;19.402;2022-09-23T08:16:34;11.38;;;4.53;;
63050;SDS011;49136;47.416;19.402;2022-09-23T08:19:01;13.10;;;4.78;;
63050;SDS011;49136;47.416;19.402;2022-09-23T08:21:26;7.97;;;4.13;;
63050;SDS011;49136;47.416;19.402;2022-09-23T08:23:52;14.77;;;4.60;;
63050;SDS011;49136;47.416;19.402;2022-09-23T08:26:18;11.50;;;5.13;;
63050;SDS011;49136;47.416;19.402;2022-09-23T08:28:43;10.98;;;4.28;;
63050;SDS011;49136;47.416;19.402;2022-09-23T08:31:09;8.15;;;4.30;;
63050;SDS011;49136;47.416;19.402;2022-09-23T08:33:36;11.73;;;4.15;;
63050;SDS011;49136;47.416;19.402;2022-09-23T08:36:01;7.43;;;4.05;;
63050;SDS011;49136;47.416;19.402;2022-09-23T08:38:27;11.82;;;4.63;;
63050;SDS011;49136;47.416;19.402;2022-09-23T08:43:47;9.20;;;4.10;;
63050;SDS011;49136;47.416;19.402;2022-09-23T08:46:18;7.35;;;3.55;;
63050;SDS011;49136;47.416;19.402;2022-09-23T08:48:48;6.00;;;3.63;;
63050;SDS011;49136;47.416;19.402;2022-09-23T08:54:10;11.75;;;4.47;;
63050;SDS011;49136;47.416;19.402;2022-09-23T08:56:38;6.65;;;3.75;;
63050;SDS011;49136;47.416;19.402;2022-09-23T08:59:24;6.63;;;3.60;;
63050;SDS011;49136;47.416;19.402;2022-09-23T09:01:59;7.78;;;3.78;;
63050;SDS011;49136;47.416;19.402;2022-09-23T09:04:43;6.45;;;3.80;;
63050;SDS011;49136;47.416;19.402;2022-09-23T09:07:14;7.93;;;3.88;;
63050;SDS011;49136;47.416;19.402;2022-09-23T09:09:46;8.10;;;3.78;;
63050;SDS011;49136;47.416;19.402;2022-09-23T09:12:23;8.93;;;4.60;;
63050;SDS011;49136;47.416;19.402;2022-09-23T09:15:00;6.43;;;3.42;;
63050;SDS011;49136;47.416;19.402;2022-09-23T09:17:34;13.70;;;4.20;;
63050;SDS011;49136;47.416;19.402;2022-09-23T09:20:06;10.32;;;3.72;;
63050;SDS011;49136;47.416;19.402;2022-09-23T09:22:55;6.47;;;3.67;;
63050;SDS011;49136;47.416;19.402;2022-09-23T09:28:10;8.00;;;4.72;;
63050;SDS011;49136;47.416;19.402;2022-09-23T09:30:59;8.10;;;4.43;;
63050;SDS011;49136;47.416;19.402;2022-09-23T09:36:18;10.98;;;3.97;;
63050;SDS011;49136;47.416;19.402;2022-09-23T09:38:54;9.20;;;4.10;;
63050;SDS011;49136;47.416;19.402;2022-09-23T09:41:23;8.60;;;4.20;;
63050;SDS011;49136;47.416;19.402;2022-09-23T09:43:51;10.13;;;4.07;;
63050;SDS011;49136;47.416;19.402;2022-09-23T09:54:46;8.82;;;4.72;;
63050;SDS011;49136;47.416;19.402;2022-09-23T09:57:32;11.50;;;4.07;;
63050;SDS011;49136;47.416;19.402;2022-09-23T10:02:46;6.75;;;3.95;;
63050;SDS011;49136;47.416;19.402;2022-09-23T10:05:25;10.82;;;4.35;;
63050;SDS011;49136;47.416;19.402;2022-09-23T10:07:54;11.02;;;4.45;;
63050;SDS011;49136;47.416;19.402;2022-09-23T10:10:20;8.15;;;3.92;;
63050;SDS011;49136;47.416;19.402;2022-09-23T10:12:48;10.68;;;3.63;;
63050;SDS011;49136;47.416;19.402;2022-09-23T10:17:57;7.40;;;3.70;;
63050;SDS011;49136;47.416;19.402;2022-09-23T10:20:30;5.88;;;3.45;;
63050;SDS011;49136;47.416;19.402;2022-09-23T10:23:04;9.25;;;4.55;;
63050;SDS011;49136;47.416;19.402;2022-09-23T10:25:32;6.72;;;3.92;;
63050;SDS011;49136;47.416;19.402;2022-09-23T10:28:09;11.48;;;3.90;;
63050;SDS011;49136;47.416;19.402;2022-09-23T10:33:29;7.35;;;3.95;;
63050;SDS011;49136;47.416;19.402;2022-09-23T10:35:55;7.05;;;3.55;;
63050;SDS011;49136;47.416;19.402;2022-09-23T10:38:24;8.50;;;4.05;;
63050;SDS011;49136;47.416;19.402;2022-09-23T10:40:49;7.30;;;3.58;;
63050;SDS011;49136;47.416;19.402;2022-09-23T10:46:43;9.60;;;4.57;;
63050;SDS011;49136;47.416;19.402;2022-09-23T10:49:31;7.45;;;3.60;;
63050;SDS011;49136;47.416;19.402;2022-09-23T11:09:08;7.95;;;3.28;;
63050;SDS011;49136;47.416;19.402;2022-09-23T11:30:22;5.25;;;2.88;;
63050;SDS011;49136;47.416;19.402;2022-09-23T11:35:55;6.70;;;3.55;;
63050;SDS011;49136;47.416;19.402;2022-09-23T11:38:25;5.68;;;3.42;;
63050;SDS011;49136;47.416;19.402;2022-09-23T11:40:55;8.10;;;3.30;;
63050;SDS011;49136;47.416;19.402;2022-09-23T11:43:29;6.15;;;3.10;;
63050;SDS011;49136;47.416;19.402;2022-09-23T11:51:24;5.13;;;3.05;;
63050;SDS011;49136;47.416;19.402;2022-09-23T11:54:04;8.65;;;2.92;;
63050;SDS011;49136;47.416;19.402;2022-09-23T11:56:43;5.83;;;2.90;;
63050;SDS011;49136;47.416;19.402;2022-09-23T11:59:15;11.27;;;5.28;;
63050;SDS011;49136;47.416;19.402;2022-09-23T12:02:12;8.95;;;4.65;;
63050;SDS011;49136;47.416;19.402;2022-09-23T12:05:07;13.15;;;5.72;;
63050;SDS011;49136;47.416;19.402;2022-09-23T12:08:23;8.05;;;4.40;;
63050;SDS011;49136;47.416;19.402;2022-09-23T12:10:35;8.88;;;4.75;;
63050;SDS011;49136;47.416;19.402;2022-09-23T12:13:11;8.68;;;5.43;;
63050;SDS011;49136;47.416;19.402;2022-09-23T12:16:07;9.35;;;4.82;;
63050;SDS011;49136;47.416;19.402;2022-09-23T12:27:41;9.10;;;4.57;;
63050;SDS011;49136;47.416;19.402;2022-09-23T12:30:13;9.15;;;5.60;;
63050;SDS011;49136;47.416;19.402;2022-09-23T12:32:42;11.07;;;5.22;;
63050;SDS011;49136;47.416;19.402;2022-09-23T12:35:24;5.63;;;4.15;;
63050;SDS011;49136;47.416;19.402;2022-09-23T12:37:59;7.25;;;4.63;;
63050;SDS011;49136;47.416;19.402;2022-09-23T12:42:55;11.15;;;5.00;;
63050;SDS011;49136;47.416;19.402;2022-09-23T12:47:57;8.43;;;5.03;;
63050;SDS011;49136;47.416;19.402;2022-09-23T12:50:46;13.60;;;5.93;;
63050;SDS011;49136;47.416;19.402;2022-09-23T13:03:40;13.60;;;7.32;;
63050;SDS011;49136;47.416;19.402;2022-09-23T13:07:03;14.13;;;7.10;;
63050;SDS011;49136;47.416;19.402;2022-09-23T13:09:25;10.30;;;6.15;;
63050;SDS011;49136;47.416;19.402;2022-09-23T13:11:55;10.02;;;6.03;;
63050;SDS011;49136;47.416;19.402;2022-09-23T13:14:27;8.68;;;5.35;;
63050;SDS011;49136;47.416;19.402;2022-09-23T13:16:56;10.38;;;6.10;;
63050;SDS011;49136;47.416;19.402;2022-09-23T13:29:47;9.77;;;5.40;;
63050;SDS011;49136;47.416;19.402;2022-09-23T13:32:21;11.88;;;6.13;;
63050;SDS011;49136;47.416;19.402;2022-09-23T13:37:36;10.35;;;5.88;;
63050;SDS011;49136;47.416;19.402;2022-09-23T13:42:41;13.52;;;7.03;;
63050;SDS011;49136;47.416;19.402;2022-09-23T13:45:15;13.32;;;7.35;;
63050;SDS011;49136;47.416;19.402;2022-09-23T13:47:43;15.38;;;8.32;;
63050;SDS011;49136;47.416;19.402;2022-09-23T13:50:14;11.13;;;6.63;;
63050;SDS011;49136;47.416;19.402;2022-09-23T13:52:45;10.52;;;6.00;;
63050;SDS011;49136;47.416;19.402;2022-09-23T13:55:23;10.07;;;5.07;;
63050;SDS011;49136;47.416;19.402;2022-09-23T13:57:58;9.48;;;5.20;;
63050;SDS011;49136;47.416;19.402;2022-09-23T14:00:38;8.70;;;4.47;;
63050;SDS011;49136;47.416;19.402;2022-09-23T14:03:16;8.25;;;4.78;;
63050;SDS011;49136;47.416;19.402;2022-09-23T14:05:43;10.85;;;5.90;;
63050;SDS011;49136;47.416;19.402;2022-09-23T14:08:09;7.55;;;4.28;;
63050;SDS011;49136;47.416;19.402;2022-09-23T14:10:34;8.93;;;5.05;;
63050;SDS011;49136;47.416;19.402;2022-09-23T14:13:00;13.52;;;4.97;;
63050;SDS011;49136;47.416;19.402;2022-09-23T14:15:26;17.75;;;5.47;;
63050;SDS011;49136;47.416;19.402;2022-09-23T14:17:52;8.75;;;5.25;;
63050;SDS011;49136;47.416;19.402;2022-09-23T14:20:26;10.32;;;5.18;;
63050;SDS011;49136;47.416;19.402;2022-09-23T14:23:04;10.48;;;5.20;;
63050;SDS011;49136;47.416;19.402;2022-09-23T14:25:36;6.97;;;4.30;;
63050;SDS011;49136;47.416;19.402;2022-09-23T14:28:02;9.48;;;4.90;;
63050;SDS011;49136;47.416;19.402;2022-09-23T14:30:28;8.25;;;4.65;;
63050;SDS011;49136;47.416;19.402;2022-09-23T14:32:55;9.10;;;4.68;;
63050;SDS011;49136;47.416;19.402;2022-09-23T14:35:22;6.80;;;4.13;;
63050;SDS011;49136;47.416;19.402;2022-09-23T14:37:52;8.50;;;4.60;;
63050;SDS011;49136;47.416;19.402;2022-09-23T14:40:55;7.40;;;3.88;;
63050;SDS011;49136;47.416;19.402;2022-09-23T14:43:57;8.57;;;4.50;;
63050;SDS011;49136;47.416;19.402;2022-09-23T14:46:30;11.88;;;4.55;;
63050;SDS011;49136;47.416;19.402;2022-09-23T14:48:59;9.95;;;5.45;;
63050;SDS011;49136;47.416;19.402;2022-09-23T15:00:29;13.13;;;5.85;;
63050;SDS011;49136;47.416;19.402;2022-09-23T15:02:41;44.00;;;15.80;;
63050;SDS011;49136;47.416;19.402;2022-09-23T15:05:15;22.50;;;10.35;;
63050;SDS011;49136;47.416;19.402;2022-09-23T15:07:42;17.60;;;6.80;;
63050;SDS011;49136;47.416;19.402;2022-09-23T15:12:44;12.05;;;4.75;;
63050;SDS011;49136;47.416;19.402;2022-09-23T15:15:13;9.23;;;5.10;;
63050;SDS011;49136;47.416;19.402;2022-09-23T15:17:39;9.30;;;4.65;;
63050;SDS011;49136;47.416;19.402;2022-09-23T15:20:16;12.93;;;4.07;;
63050;SDS011;49136;47.416;19.402;2022-09-23T15:22:44;7.93;;;4.55;;
63050;SDS011;49136;47.416;19.402;2022-09-23T15:27:54;10.30;;;4.57;;
63050;SDS011;49136;47.416;19.402;2022-09-23T15:30:35;8.10;;;3.92;;
63050;SDS011;49136;47.416;19.402;2022-09-23T15:33:02;10.10;;;4.13;;
63050;SDS011;49136;47.416;19.402;2022-09-23T15:35:28;6.65;;;3.78;;
63050;SDS011;49136;47.416;19.402;2022-09-23T15:37:56;9.85;;;3.92;;
63050;SDS011;49136;47.416;19.402;2022-09-23T15:40:25;9.38;;;4.65;;
63050;SDS011;49136;47.416;19.402;2022-09-23T15:42:55;11.73;;;4.38;;
63050;SDS011;49136;47.416;19.402;2022-09-23T15:45:27;8.02;;;4.00;;
63050;SDS011;49136;47.416;19.402;2022-09-23T15:47:54;7.72;;;4.28;;
63050;SDS011;49136;47.416;19.402;2022-09-23T15:50:24;11.77;;;4.65;;
63050;SDS011;49136;47.416;19.402;2022-09-23T15:52:51;7.40;;;4.18;;
63050;SDS011;49136;47.416;19.402;2022-09-23T15:55:18;7.45;;;4.50;;
63050;SDS011;49136;47.416;19.402;2022-09-23T15:57:47;12.10;;;4.70;;
63050;SDS011;49136;47.416;19.402;2022-09-23T16:00:13;6.43;;;4.45;;
63050;SDS011;49136;47.416;19.402;2022-09-23T16:02:40;12.07;;;5.55;;
63050;SDS011;49136;47.416;19.402;2022-09-23T16:05:10;15.48;;;5.43;;
63050;SDS011;49136;47.416;19.402;2022-09-23T16:07:51;24.92;;;6.25;;
63050;SDS011;49136;47.416;19.402;2022-09-23T16:10:20;29.02;;;9.50;;
63050;SDS011;49136;47.416;19.402;2022-09-23T16:12:46;23.73;;;8.80;;
63050;SDS011;49136;47.416;19.402;2022-09-23T16:15:13;22.75;;;8.50;;
63050;SDS011;49136;47.416;19.402;2022-09-23T16:17:41;14.35;;;7.32;;
63050;SDS011;49136;47.416;19.402;2022-09-23T16:20:09;22.38;;;8.30;;
63050;SDS011;49136;47.416;19.402;2022-09-23T16:22:35;23.80;;;10.23;;
63050;SDS011;49136;47.416;19.402;2022-09-23T16:25:02;26.85;;;12.75;;
63050;SDS011;49136;47.416;19.402;2022-09-23T16:27:27;44.00;;;16.92;;
63050;SDS011;49136;47.416;19.402;2022-09-23T16:29:53;28.60;;;14.05;;
63050;SDS011;49136;47.416;19.402;2022-09-23T16:32:18;31.63;;;13.32;;
63050;SDS011;49136;47.416;19.402;2022-09-23T16:34:44;32.33;;;15.52;;
63050;SDS011;49136;47.416;19.402;2022-09-23T16:37:10;28.50;;;14.93;;
63050;SDS011;49136;47.416;19.402;2022-09-23T16:39:39;42.83;;;18.00;;
63050;SDS011;49136;47.416;19.402;2022-09-23T16:42:05;42.20;;;21.70;;
63050;SDS011;49136;47.416;19.402;2022-09-23T16:44:30;44.05;;;21.10;;
63050;SDS011;49136;47.416;19.402;2022-09-23T16:46:57;48.33;;;19.48;;
63050;SDS011;49136;47.416;19.402;2022-09-23T16:49:23;66.38;;;28.75;;
63050;SDS011;49136;47.416;19.402;2022-09-23T16:51:48;44.70;;;18.98;;
63050;SDS011;49136;47.416;19.402;2022-09-23T16:54:14;58.38;;;23.42;;
63050;SDS011;49136;47.416;19.402;2022-09-23T16:56:42;42.88;;;15.55;;
63050;SDS011;49136;47.416;19.402;2022-09-23T16:59:09;39.80;;;14.55;;
63050;SDS011;49136;47.416;19.402;2022-09-23T17:01:35;28.50;;;13.25;;
63050;SDS011;49136;47.416;19.402;2022-09-23T17:04:19;51.10;;;16.17;;
63050;SDS011;49136;47.416;19.402;2022-09-23T17:06:47;53.78;;;20.48;;
63050;SDS011;49136;47.416;19.402;2022-09-23T17:09:15;47.42;;;16.52;;
63050;SDS011;49136;47.416;19.402;2022-09-23T17:11:42;37.40;;;14.48;;
63050;SDS011;49136;47.416;19.402;2022-09-23T17:14:11;32.17;;;15.82;;
63050;SDS011;49136;47.416;19.402;2022-09-23T17:16:37;35.22;;;13.80;;
63050;SDS011;49136;47.416;19.402;2022-09-23T17:19:07;35.83;;;15.63;;
63050;SDS011;49136;47.416;19.402;2022-09-23T17:21:33;45.05;;;15.95;;
63050;SDS011;49136;47.416;19.402;2022-09-23T17:23:59;47.22;;;18.08;;
63050;SDS011;49136;47.416;19.402;2022-09-23T17:26:25;42.15;;;17.05;;
63050;SDS011;49136;47.416;19.402;2022-09-23T17:28:51;65.05;;;21.42;;
63050;SDS011;49136;47.416;19.402;2022-09-23T17:31:21;55.47;;;19.42;;
63050;SDS011;49136;47.416;19.402;2022-09-23T17:33:48;52.40;;;19.25;;
63050;SDS011;49136;47.416;19.402;2022-09-23T17:36:14;55.88;;;19.38;;
63050;SDS011;49136;47.416;19.402;2022-09-23T17:38:43;47.20;;;16.65;;
63050;SDS011;49136;47.416;19.402;2022-09-23T17:41:10;56.22;;;18.95;;